createdAt,value
2023-02-16T00:02:07.806Z,-1.59
2023-02-16T00:07:08.916Z,-1.60
2023-02-16T00:12:10.055Z,-1.67
2023-02-16T00:17:11.261Z,-1.67
2023-02-16T00:22:12.420Z,-1.82
2023-02-16T00:27:13.554Z,-1.92
2023-02-16T00:32:14.855Z,-1.87
2023-02-16T00:37:16.153Z,-1.90
2023-02-16T00:42:17.283Z,-1.75
2023-02-16T00:47:18.438Z,-1.80
2023-02-16T00:52:19.584Z,-1.74
2023-02-16T00:57:21.751Z,-1.96
2023-02-16T01:02:21.912Z,-2.02
2023-02-16T01:07:22.350Z,-2.13
2023-02-16T01:12:23.498Z,-2.17
2023-02-16T01:17:22.633Z,-2.11
2023-02-16T01:22:23.763Z,-1.95
2023-02-16T01:27:25.880Z,-1.88
2023-02-16T01:32:26.076Z,-1.82
2023-02-16T01:37:26.234Z,-1.88
2023-02-16T01:42:25.735Z,-2.05
2023-02-16T01:47:24.824Z,-2.21
2023-02-16T01:52:26.972Z,-2.36
2023-02-16T01:57:26.119Z,-2.29
2023-02-16T02:02:27.365Z,-2.23
2023-02-16T02:07:28.648Z,-2.16
2023-02-16T02:12:29.858Z,-2.35
2023-02-16T02:17:30.155Z,-2.32
2023-02-16T02:22:31.379Z,-2.23
2023-02-16T02:27:33.543Z,-2.08
2023-02-16T02:32:32.714Z,-2.18
2023-02-16T02:37:33.902Z,-1.99
2023-02-16T02:42:35.038Z,-1.99
2023-02-16T02:47:36.194Z,-2.06
2023-02-16T02:52:38.310Z,-2.14
2023-02-16T02:57:38.430Z,-2.10
2023-02-16T03:02:37.612Z,-1.98
2023-02-16T03:07:39.777Z,-1.93
2023-02-16T03:12:37.965Z,-2.14
2023-02-16T03:17:40.132Z,-2.11
2023-02-16T03:22:40.246Z,-2.26
2023-02-16T03:27:40.401Z,-2.36
2023-02-16T03:32:39.578Z,-2.51
2023-02-16T03:37:41.694Z,-2.54
2023-02-16T03:42:40.848Z,-2.45
2023-02-16T03:47:42.034Z,-2.23
2023-02-16T03:52:43.170Z,-2.21
2023-02-16T03:57:44.331Z,-2.26
2023-02-16T04:02:45.514Z,-2.23
2023-02-16T04:07:47.658Z,-2.14
2023-02-16T04:12:46.937Z,-2.10
2023-02-16T04:17:48.195Z,-2.05
2023-02-16T04:22:49.337Z,-1.99
2023-02-16T04:27:51.487Z,-2.29
2023-02-16T04:32:51.698Z,-2.21
2023-02-16T04:37:50.860Z,-2.26
2023-02-16T04:42:52.980Z,-2.18
2023-02-16T04:47:52.134Z,-2.35
2023-02-16T04:52:53.240Z,-2.47
2023-02-16T04:57:54.512Z,-2.53
2023-02-16T05:02:56.795Z,-2.43
2023-02-16T05:07:55.966Z,-2.47
2023-02-16T05:12:58.114Z,-2.47
2023-02-16T05:17:57.245Z,-2.56
2023-02-16T05:22:58.440Z,-2.63
2023-02-16T05:27:59.753Z,-2.68
2023-02-16T05:33:00.936Z,-2.50
2023-02-16T05:38:02.170Z,-2.63
2023-02-16T05:43:04.346Z,-2.57
2023-02-16T05:48:03.465Z,-2.61
2023-02-16T05:53:05.713Z,-2.69
2023-02-16T05:58:04.855Z,-2.68
2023-02-16T06:03:06.511Z,-2.87
2023-02-16T06:08:06.631Z,-2.79
2023-02-16T06:13:06.794Z,-3.00
2023-02-16T06:18:06.100Z,-2.90
2023-02-16T06:23:07.280Z,-2.72
2023-02-16T06:28:08.440Z,-2.86
2023-02-16T06:33:09.601Z,-2.82
2023-02-16T06:38:10.762Z,-2.82
2023-02-16T06:43:11.936Z,-2.87
2023-02-16T06:48:16.137Z,-2.79
2023-02-16T06:53:13.237Z,-2.71
2023-02-16T06:58:13.397Z,-2.56
2023-02-16T07:03:15.572Z,-2.50
2023-02-16T07:08:14.733Z,-2.50
2023-02-16T07:13:15.880Z,-2.48
2023-02-16T07:18:17.976Z,-2.18
2023-02-16T07:23:17.104Z,-2.02
2023-02-16T07:28:18.262Z,-1.66
2023-02-16T07:33:19.408Z,-1.35
2023-02-16T07:38:20.512Z,-1.17
2023-02-16T07:43:21.641Z,-1.13
2023-02-16T07:48:22.804Z,-1.07
2023-02-16T07:53:24.970Z,-1.06
2023-02-16T07:58:24.099Z,-0.77
2023-02-16T08:03:25.434Z,-0.55
2023-02-16T08:08:25.711Z,-0.48
2023-02-16T08:13:25.827Z,-0.44
2023-02-16T08:18:24.983Z,-0.09
2023-02-16T08:23:26.167Z,0.46
2023-02-16T08:28:27.334Z,0.82
2023-02-16T08:33:29.509Z,0.89
2023-02-16T08:38:28.647Z,1.14
2023-02-16T08:43:29.821Z,1.42
2023-02-16T08:48:29.926Z,1.61
2023-02-16T08:53:31.035Z,2.02
2023-02-16T08:58:32.185Z,2.49
2023-02-16T09:03:33.325Z,2.51
2023-02-16T09:08:34.484Z,2.66
2023-02-16T09:13:35.741Z,3.18
2023-02-16T09:18:37.883Z,3.44
2023-02-16T09:23:37.067Z,3.64
2023-02-16T09:28:38.170Z,3.98
2023-02-16T09:33:40.279Z,4.50
2023-02-16T09:38:40.400Z,4.96
2023-02-16T09:43:39.581Z,5.49
2023-02-16T09:48:40.733Z,5.59
2023-02-16T09:53:43.878Z,5.88
2023-02-16T09:58:43.992Z,5.88
2023-02-16T10:03:45.117Z,6.03
2023-02-16T10:08:46.224Z,6.22
2023-02-16T10:13:46.323Z,6.56
2023-02-16T10:18:45.436Z,6.87
2023-02-16T10:23:46.548Z,6.97
2023-02-16T10:28:47.683Z,7.20
2023-02-16T10:33:48.803Z,7.42
2023-02-16T10:38:50.958Z,7.45
2023-02-16T10:43:51.144Z,7.49
2023-02-16T10:48:51.216Z,8.17
2023-02-16T10:53:52.352Z,8.36
2023-02-16T10:58:51.512Z,8.65
2023-02-16T11:03:53.691Z,8.20
2023-02-16T11:08:52.780Z,8.39
2023-02-16T11:13:54.907Z,8.33
2023-02-16T11:18:54.018Z,8.51
2023-02-16T11:23:56.138Z,8.88
2023-02-16T11:28:55.248Z,9.24
2023-02-16T11:33:56.340Z,9.27
2023-02-16T11:38:58.468Z,9.46
2023-02-16T11:43:58.588Z,9.38
2023-02-16T11:48:57.701Z,9.67
2023-02-16T11:53:59.794Z,9.91
2023-02-16T11:58:58.877Z,9.86
2023-02-16T12:04:00.058Z,9.86
2023-02-16T12:09:01.314Z,9.86
2023-02-16T12:14:03.455Z,9.71
2023-02-16T12:19:03.820Z,9.12
2023-02-16T12:24:03.915Z,9.28
2023-02-16T12:29:03.533Z,9.20
2023-02-16T12:34:03.627Z,9.49
2023-02-16T12:39:02.751Z,9.63
2023-02-16T12:44:04.888Z,9.83
2023-02-16T12:49:06.015Z,9.94
2023-02-16T12:54:06.137Z,10.09
2023-02-16T12:59:07.250Z,10.03
2023-02-16T13:04:07.386Z,10.09
2023-02-16T13:09:06.496Z,10.19
2023-02-16T13:14:08.638Z,10.39
2023-02-16T13:19:07.729Z,10.32
2023-02-16T13:24:08.850Z,10.18
2023-02-16T13:29:10.051Z,10.47
2023-02-16T13:34:11.356Z,10.44
2023-02-16T13:39:12.525Z,10.65
2023-02-16T13:44:14.658Z,11.19
2023-02-16T13:49:13.782Z,11.72
2023-02-16T13:54:15.889Z,12.09
2023-02-16T13:59:16.005Z,12.39
2023-02-16T14:04:16.182Z,12.44
2023-02-16T14:09:15.269Z,12.34
2023-02-16T14:14:18.359Z,12.63
2023-02-16T14:19:18.489Z,12.88
2023-02-16T14:24:17.631Z,13.20
2023-02-16T14:29:19.750Z,13.03
2023-02-16T14:34:19.917Z,12.70
2023-02-16T14:39:19.018Z,12.41
2023-02-16T14:44:20.125Z,11.53
2023-02-16T14:49:22.249Z,11.54
2023-02-16T14:54:22.389Z,11.43
2023-02-16T14:59:22.493Z,11.35
2023-02-16T15:04:21.618Z,11.14
2023-02-16T15:09:22.780Z,11.06
2023-02-16T15:14:23.898Z,10.66
2023-02-16T15:19:27.080Z,10.80
2023-02-16T15:24:26.355Z,10.84
2023-02-16T15:29:28.714Z,10.92
2023-02-16T15:34:29.881Z,10.99
2023-02-16T15:39:42.711Z,10.91
2023-02-16T15:44:30.016Z,10.81
2023-02-16T15:49:29.300Z,10.43
2023-02-16T15:54:31.812Z,10.07
2023-02-16T15:59:32.922Z,9.83
2023-02-16T16:04:32.460Z,9.56
2023-02-16T16:09:32.789Z,9.38
2023-02-16T16:14:34.264Z,9.15
2023-02-16T16:19:32.766Z,8.88
2023-02-16T16:24:31.915Z,8.73
2023-02-16T16:29:34.107Z,8.66
2023-02-16T16:34:34.261Z,8.51
2023-02-16T16:39:33.427Z,8.22
2023-02-16T16:44:35.769Z,7.92
2023-02-16T16:49:34.984Z,7.56
2023-02-16T16:54:38.101Z,7.50
2023-02-16T16:59:37.215Z,7.55
2023-02-16T17:04:39.575Z,7.69
2023-02-16T17:09:39.060Z,7.26
2023-02-16T17:14:39.497Z,7.27
2023-02-16T17:19:39.512Z,6.97
2023-02-16T17:24:39.522Z,6.97
2023-02-16T17:29:40.885Z,7.26
2023-02-16T17:34:42.273Z,7.13
2023-02-16T17:39:43.475Z,6.95
2023-02-16T17:44:44.979Z,6.87
2023-02-16T17:49:45.525Z,6.87
2023-02-16T17:54:45.048Z,6.77
2023-02-16T17:59:46.141Z,6.65
2023-02-16T18:04:46.658Z,6.44
2023-02-16T18:09:46.133Z,6.46
2023-02-16T18:14:45.652Z,6.29
2023-02-16T18:19:45.884Z,6.25
2023-02-16T18:24:44.374Z,6.43
2023-02-16T18:29:45.944Z,6.32
2023-02-16T18:34:45.469Z,6.28
2023-02-16T18:39:45.128Z,6.28
2023-02-16T18:44:44.663Z,6.30
2023-02-16T18:49:44.246Z,6.33
2023-02-16T18:54:44.788Z,6.19
2023-02-16T18:59:44.323Z,6.19
2023-02-16T19:04:44.959Z,6.19
2023-02-16T19:09:45.146Z,5.98
2023-02-16T19:14:45.727Z,6.06
2023-02-16T19:19:46.853Z,6.11
2023-02-16T19:24:51.620Z,6.18
2023-02-16T19:29:48.111Z,6.09
2023-02-16T19:34:47.728Z,5.92
2023-02-16T19:39:47.283Z,5.88
2023-02-16T19:44:51.996Z,5.95
2023-02-16T19:49:47.492Z,5.95
2023-02-16T19:54:51.546Z,6.09
2023-02-16T19:59:48.205Z,6.32
2023-02-16T20:04:47.776Z,6.58
2023-02-16T20:09:48.930Z,6.58
2023-02-16T20:14:48.493Z,6.90
2023-02-16T20:19:47.767Z,7.15
2023-02-16T20:24:49.193Z,7.69
2023-02-16T20:29:49.519Z,7.74
2023-02-16T20:34:50.081Z,7.71
2023-02-16T20:39:49.419Z,7.63
2023-02-16T20:44:50.852Z,7.55
2023-02-16T20:49:51.036Z,7.59
2023-02-16T20:54:50.583Z,7.38
2023-02-16T20:59:49.954Z,7.34
2023-02-16T21:04:51.975Z,7.20
2023-02-16T21:09:51.460Z,7.15
2023-02-16T21:14:53.988Z,6.98
2023-02-16T21:19:54.202Z,6.97
2023-02-16T21:24:54.091Z,7.02
2023-02-16T21:29:55.596Z,7.41
2023-02-16T21:34:54.105Z,7.85
2023-02-16T21:39:56.530Z,8.04
2023-02-16T21:44:55.715Z,8.26
2023-02-16T21:49:57.127Z,8.26
2023-02-16T21:54:58.330Z,8.36
2023-02-16T21:59:59.523Z,8.45
2023-02-16T22:05:00.633Z,8.65
2023-02-16T22:10:03.837Z,9.05
2023-02-16T22:15:04.648Z,9.28
2023-02-16T22:20:03.779Z,9.18
2023-02-16T22:25:05.928Z,9.01
2023-02-16T22:30:05.090Z,8.87
2023-02-16T22:35:06.173Z,8.47
2023-02-16T22:40:07.344Z,8.29
2023-02-16T22:45:08.513Z,8.14
2023-02-16T22:50:10.594Z,7.90
2023-02-16T22:55:09.757Z,7.96
2023-02-16T23:00:11.930Z,8.18
2023-02-16T23:05:11.080Z,8.45
2023-02-16T23:10:12.170Z,8.78
2023-02-16T23:15:13.291Z,8.94
2023-02-16T23:20:14.432Z,9.20
2023-02-16T23:25:15.584Z,9.39
2023-02-16T23:30:16.733Z,9.46
2023-02-16T23:35:18.174Z,9.56
2023-02-16T23:40:20.331Z,9.61
2023-02-16T23:45:19.421Z,9.58
2023-02-16T23:50:20.493Z,9.64
2023-02-16T23:55:21.754Z,9.71
